Cape Romanzof Lrrs Airport
PACZ : rendu visible

Aérodrome :











RETROUVEZ-NOUS SUR...

 
LOGIN :

S'inscrire | Disclaimer

   EN    FR    IT 

 









Légende :    VFR   VFR Marginal   IFR   IFR Intensif   IFR Très Intensif
Visi : 
Plafond : 
>= 8 km
>= 3000ft
5 à 8 km
1000 à 3000 ft
1500m à 5 km
500 à 1000 ft
800 à 1500m
200 à 500 ft
< 800m
< 200 ft
Symboles :   Orages  Brouillard  Fortes neiges  Fortes précipitations  Vent > 20 kt






- Altitude de l'aérodrome : 464 ft
- Code IATA : CZF


PACZ - Cape Romanzof Lrrs

DERNIER METAR :
  • 120934Z AUTO 04016KT 10SM FEW001 09/08 A2976 RMK AO2 SLP080

METARs EXPIRÉS :
  • 120919Z AUTO 04015KT 4SM -SHRA SCT001 08/08 A2976 RMK AO2 SLP081
  • 120904Z AUTO 05016KT 10SM BKN002 08/08 A2976 RMK AO2 SLP080
  • 120855Z AUTO 06014KT 9SM -SHRA BKN002 08/08 A2976 RMK AO2 SHRAB0827E0829B0846DZB0843E0846 SLP081 P0000 60000 T00800084 401120070 52004
  • 120849Z AUTO 06015KT 5SM -SHRA BKN002 08/08 A2976 RMK AO2 SLP080
  • 120834Z AUTO 05016KT 1 1/4SM -RA BR BKN002 08/08 A2975 RMK AO2 SLP078
  • 120755Z AUTO 05017KT 9SM BKN002 08/08 A2976 RMK AO2 SLP079 T00800083
  • 120655Z AUTO 06017KT 10SM BKN002 09/09 A2975 RMK AO2 SLP076 T00930088

Prévision TAF périmée.
FIR PAZA / Amérique du Nord



MET'MAP, la Météo Aéronautique d'un coup d'oeil ! - Copyright ORBIFLY Décembre 2007 - Disclaimer

ORBIFLY MET'MAP TEAM :

Programmation & Développement : Alexandra Zaïnal
Sur une idée originale de : Baudouin d'Aumeries
Assistance à la programmation : Marc-Olivier Méhu
Soutien technique & logistique : Manuel Goepfert

Contact : metmap@orbifly.com




SOURCES & CREDITS :

   NOAA       Earth
Advisory